createdAt,value
2023-01-29T00:02:52.372Z,1.02
2023-01-29T00:05:55.462Z,1.02
2023-01-29T00:08:58.976Z,1.06
2023-01-29T00:12:02.375Z,1.08
2023-01-29T00:15:10.743Z,1.07
2023-01-29T00:18:14.726Z,1.17
2023-01-29T00:21:20.186Z,1.22
2023-01-29T00:24:25.857Z,1.14
2023-01-29T00:27:29.961Z,1.14
2023-01-29T00:30:33.766Z,1.19
2023-01-29T00:33:36.984Z,1.07
2023-01-29T00:36:40.139Z,1.03
2023-01-29T00:39:48.097Z,1.06
2023-01-29T00:43:10.589Z,1.10
2023-01-29T00:46:14.767Z,1.07
2023-01-29T00:49:18.069Z,1.05
2023-01-29T00:52:27.082Z,0.94
2023-01-29T00:55:30.336Z,0.97
2023-01-29T00:58:36.079Z,0.89
2023-01-29T01:01:59.027Z,1.03
2023-01-29T01:05:06.335Z,0.91
2023-01-29T01:08:29.548Z,0.99
2023-01-29T01:11:34.357Z,0.94
2023-01-29T01:14:37.476Z,0.94
2023-01-29T01:17:40.525Z,0.91
2023-01-29T01:20:51.707Z,0.89
2023-01-29T01:23:54.775Z,0.93
2023-01-29T01:26:57.873Z,0.90
2023-01-29T01:30:01.093Z,0.82
2023-01-29T01:33:06.802Z,0.78
2023-01-29T01:36:10.062Z,0.81
2023-01-29T01:39:13.558Z,0.88
2023-01-29T01:42:16.755Z,0.79
2023-01-29T01:45:26.148Z,0.96
2023-01-29T01:48:30.760Z,0.93
2023-01-29T01:51:39.391Z,0.77
2023-01-29T01:54:44.674Z,0.71
2023-01-29T01:57:53.125Z,0.70
2023-01-29T02:00:57.502Z,0.64
2023-01-29T02:04:26.372Z,0.67
2023-01-29T02:07:48.161Z,0.68
2023-01-29T02:10:51.431Z,0.67
2023-01-29T02:13:54.756Z,0.80
2023-01-29T02:17:02.234Z,0.73
2023-01-29T02:20:18.150Z,0.86
2023-01-29T02:23:43.496Z,0.83
2023-01-29T02:26:59.925Z,0.64
2023-01-29T02:30:36.259Z,0.62
2023-01-29T02:33:59.562Z,0.68
2023-01-29T02:37:09.863Z,0.74
2023-01-29T02:40:37.229Z,0.75
2023-01-29T02:43:40.353Z,0.74
2023-01-29T02:46:51.993Z,0.74
2023-01-29T02:50:26.020Z,0.64
2023-01-29T02:53:35.324Z,0.68
2023-01-29T02:56:51.934Z,0.51
2023-01-29T03:00:10.659Z,0.65
2023-01-29T03:03:17.892Z,0.66
2023-01-29T03:06:28.551Z,0.70
2023-01-29T03:09:39.835Z,0.62
2023-01-29T03:12:47.352Z,0.59
2023-01-29T03:16:01.753Z,0.70
2023-01-29T03:19:36.895Z,0.65
2023-01-29T03:22:51.905Z,0.66
2023-01-29T03:26:18.316Z,0.71
2023-01-29T03:29:40.996Z,0.66
2023-01-29T03:32:47.036Z,0.66
2023-01-29T03:35:56.994Z,0.76
2023-01-29T03:39:00.507Z,0.67
2023-01-29T03:42:22.574Z,0.80
2023-01-29T03:46:08.664Z,0.68
2023-01-29T03:49:19.783Z,0.71
2023-01-29T03:52:39.126Z,0.72
2023-01-29T03:55:59.894Z,0.77
2023-01-29T03:59:12.071Z,0.79
2023-01-29T04:02:49.272Z,0.67
2023-01-29T04:05:52.647Z,0.79
2023-01-29T04:09:11.012Z,0.79
2023-01-29T04:12:26.966Z,0.79
2023-01-29T04:15:34.882Z,0.82
2023-01-29T04:18:37.919Z,0.72
2023-01-29T04:21:45.151Z,0.85
2023-01-29T04:24:50.329Z,0.82
2023-01-29T04:28:18.387Z,0.86
2023-01-29T04:31:25.347Z,0.92
2023-01-29T04:34:35.601Z,0.83
2023-01-29T04:37:45.913Z,0.88
2023-01-29T04:40:57.253Z,0.85
2023-01-29T04:44:15.441Z,0.88
2023-01-29T04:47:43.586Z,0.81
2023-01-29T04:50:55.835Z,0.85
2023-01-29T04:54:14.121Z,0.86
2023-01-29T04:57:25.646Z,0.81
2023-01-29T05:00:35.136Z,0.88
2023-01-29T05:03:40.815Z,0.82
2023-01-29T05:06:45.109Z,0.75
2023-01-29T05:09:49.733Z,0.83
2023-01-29T05:13:00.691Z,0.88
2023-01-29T05:16:21.891Z,0.94
2023-01-29T05:19:24.848Z,0.84
2023-01-29T05:22:28.095Z,0.80
2023-01-29T05:25:33.302Z,0.79
2023-01-29T05:28:36.242Z,0.72
2023-01-29T05:31:39.404Z,0.82
2023-01-29T05:34:42.715Z,0.86
2023-01-29T05:37:45.908Z,0.79
2023-01-29T05:41:08.510Z,0.74
2023-01-29T05:44:11.481Z,0.71
2023-01-29T05:47:14.294Z,0.75
2023-01-29T05:50:17.561Z,0.77
2023-01-29T05:53:20.612Z,0.73
2023-01-29T05:56:23.646Z,0.64
2023-01-29T05:59:26.573Z,0.63
2023-01-29T06:02:32.673Z,0.59
2023-01-29T06:05:38.729Z,0.61
2023-01-29T06:08:41.956Z,0.54
2023-01-29T06:11:45.085Z,0.57
2023-01-29T06:14:48.032Z,0.54
2023-01-29T06:17:50.725Z,0.53
2023-01-29T06:20:53.797Z,0.58
2023-01-29T06:23:56.863Z,0.57
2023-01-29T06:26:59.956Z,0.53
2023-01-29T06:30:04.705Z,0.53
2023-01-29T06:33:07.738Z,0.54
2023-01-29T06:36:10.668Z,0.55
2023-01-29T06:39:13.500Z,0.57
2023-01-29T06:42:16.434Z,0.57
2023-01-29T06:45:19.413Z,0.61
2023-01-29T06:48:23.789Z,0.66
2023-01-29T06:51:26.684Z,0.73
2023-01-29T06:54:29.770Z,0.76
2023-01-29T06:57:32.620Z,0.76
2023-01-29T07:00:36.325Z,0.64
2023-01-29T07:03:39.404Z,0.71
2023-01-29T07:06:42.109Z,0.72
2023-01-29T07:09:44.831Z,0.76
2023-01-29T07:12:47.834Z,0.83
2023-01-29T07:15:50.560Z,0.83
2023-01-29T07:18:53.416Z,0.92
2023-01-29T07:21:56.294Z,0.94
2023-01-29T07:24:59.220Z,0.98
2023-01-29T07:28:02.492Z,1.06
2023-01-29T07:31:06.283Z,1.08
2023-01-29T07:34:09.510Z,1.22
2023-01-29T07:37:12.475Z,1.21
2023-01-29T07:40:16.249Z,1.09
2023-01-29T07:43:19.565Z,1.02
2023-01-29T07:46:22.460Z,0.97
2023-01-29T07:49:27.221Z,1.15
2023-01-29T07:52:31.636Z,1.22
2023-01-29T07:55:34.527Z,1.12
2023-01-29T07:58:37.402Z,1.13
2023-01-29T08:01:40.188Z,1.28
2023-01-29T08:04:42.988Z,1.28
2023-01-29T08:07:49.349Z,1.32
2023-01-29T08:11:03.120Z,1.48
2023-01-29T08:14:06.025Z,1.59
2023-01-29T08:17:08.822Z,1.69
2023-01-29T08:20:19.698Z,1.76
2023-01-29T08:23:23.307Z,1.43
2023-01-29T08:26:27.972Z,1.47
2023-01-29T08:29:31.373Z,1.60
2023-01-29T08:32:34.316Z,1.78
2023-01-29T08:35:37.662Z,1.99
2023-01-29T08:38:40.673Z,1.96
2023-01-29T08:41:43.901Z,1.73
2023-01-29T08:44:47.026Z,2.01
2023-01-29T08:47:50.744Z,2.06
2023-01-29T08:50:57.105Z,2.01
2023-01-29T08:54:00.197Z,2.13
2023-01-29T08:57:03.776Z,2.14
2023-01-29T09:00:09.508Z,2.25
2023-01-29T09:03:12.577Z,2.10
2023-01-29T09:06:15.460Z,2.42
2023-01-29T09:09:18.700Z,2.19
2023-01-29T09:12:21.632Z,2.50
2023-01-29T09:15:24.771Z,2.86
2023-01-29T09:18:28.481Z,3.16
2023-01-29T09:21:31.601Z,3.11
2023-01-29T09:24:35.312Z,3.11
2023-01-29T09:27:38.267Z,3.21
2023-01-29T09:30:41.384Z,3.36
2023-01-29T09:33:44.371Z,3.46
2023-01-29T09:36:47.318Z,3.42
2023-01-29T09:39:50.602Z,3.57
2023-01-29T09:43:43.218Z,3.34
2023-01-29T09:46:48.707Z,3.31
2023-01-29T09:50:18.428Z,3.40
2023-01-29T09:53:34.714Z,3.12
2023-01-29T09:56:37.619Z,3.06
2023-01-29T09:59:40.714Z,3.23
2023-01-29T10:03:03.993Z,3.17
2023-01-29T10:06:37.407Z,3.36
2023-01-29T10:10:07.878Z,3.56
2023-01-29T10:13:37.152Z,3.39
2023-01-29T10:16:46.254Z,3.40
2023-01-29T10:20:07.950Z,2.93
2023-01-29T10:23:38.732Z,3.18
2023-01-29T10:26:41.751Z,3.23
2023-01-29T10:29:47.524Z,3.03
2023-01-29T10:32:50.937Z,3.02
2023-01-29T10:36:00.307Z,3.02
2023-01-29T10:39:03.498Z,2.85
2023-01-29T10:42:34.226Z,2.80
2023-01-29T10:46:15.600Z,2.71
2023-01-29T10:49:37.380Z,2.83
2023-01-29T10:52:58.997Z,2.63
2023-01-29T10:56:31.371Z,2.45
2023-01-29T10:59:47.957Z,2.54
2023-01-29T11:02:52.153Z,2.26
2023-01-29T11:06:13.085Z,2.29
2023-01-29T11:09:26.838Z,2.26
2023-01-29T11:12:32.324Z,2.16
2023-01-29T11:15:35.275Z,2.34
2023-01-29T11:18:59.764Z,2.44
2023-01-29T11:22:04.543Z,2.42
2023-01-29T11:25:26.307Z,2.33
2023-01-29T11:28:47.073Z,2.36
2023-01-29T11:31:50.045Z,2.27
2023-01-29T11:35:16.370Z,2.27
2023-01-29T11:38:28.271Z,2.13
2023-01-29T11:41:31.082Z,2.14
2023-01-29T11:44:40.674Z,2.09
2023-01-29T11:47:48.446Z,2.20
2023-01-29T11:51:02.448Z,2.10
2023-01-29T11:54:06.622Z,2.04
2023-01-29T11:57:24.012Z,2.05
2023-01-29T12:00:29.988Z,2.10
2023-01-29T12:03:39.772Z,2.05
2023-01-29T12:06:45.599Z,2.03
2023-01-29T12:09:57.186Z,1.97
2023-01-29T12:13:10.098Z,1.86
2023-01-29T12:16:24.030Z,1.81
2023-01-29T12:19:35.404Z,1.84
2023-01-29T12:23:11.473Z,1.75
2023-01-29T12:26:33.014Z,1.77
2023-01-29T12:30:13.262Z,1.72
2023-01-29T12:33:58.538Z,1.72
2023-01-29T12:37:11.652Z,1.83
2023-01-29T12:40:17.197Z,2.02
2023-01-29T12:43:41.416Z,1.95
2023-01-29T12:46:50.791Z,1.94
2023-01-29T12:50:02.534Z,1.97
2023-01-29T12:53:08.712Z,1.84
2023-01-29T12:56:19.329Z,1.94
2023-01-29T12:59:37.784Z,1.93
2023-01-29T13:03:19.623Z,2.06
2023-01-29T13:06:34.539Z,2.02
2023-01-29T13:09:41.829Z,2.27
2023-01-29T13:12:55.951Z,2.48
2023-01-29T13:16:01.451Z,2.28
2023-01-29T13:19:24.249Z,2.50
2023-01-29T13:22:40.759Z,2.53
2023-01-29T13:25:43.915Z,2.82
2023-01-29T13:28:48.394Z,5.58
2023-01-29T13:31:53.708Z,5.74
2023-01-29T13:35:05.159Z,4.96
2023-01-29T13:38:25.687Z,4.93
2023-01-29T13:41:37.351Z,7.03
2023-01-29T13:44:41.694Z,6.74
2023-01-29T13:47:45.763Z,5.14
2023-01-29T13:50:51.512Z,4.02
2023-01-29T13:54:04.203Z,2.97
2023-01-29T13:57:35.933Z,2.82
2023-01-29T14:00:38.676Z,2.55
2023-01-29T14:04:03.335Z,2.28
2023-01-29T14:07:48.888Z,2.11
2023-01-29T14:11:17.323Z,1.94
2023-01-29T14:15:02.720Z,1.84
2023-01-29T14:18:08.843Z,2.03
2023-01-29T14:21:12.043Z,1.99
2023-01-29T14:24:21.321Z,1.95
2023-01-29T14:27:28.290Z,1.92
2023-01-29T14:30:34.507Z,1.82
2023-01-29T14:33:41.157Z,1.95
2023-01-29T14:36:47.409Z,1.81
2023-01-29T14:39:59.562Z,1.80
2023-01-29T14:43:20.148Z,1.71
2023-01-29T14:46:35.466Z,1.81
2023-01-29T14:50:26.377Z,1.78
2023-01-29T14:53:44.423Z,1.82
2023-01-29T14:57:06.144Z,1.80
2023-01-29T15:00:24.376Z,1.72
2023-01-29T15:03:48.481Z,1.66
2023-01-29T15:07:32.677Z,1.45
2023-01-29T15:11:13.235Z,1.51
2023-01-29T15:14:16.878Z,1.57
2023-01-29T15:18:02.319Z,1.59
2023-01-29T15:21:15.257Z,1.57
2023-01-29T15:24:18.144Z,1.63
2023-01-29T15:27:20.976Z,1.62
2023-01-29T15:30:33.717Z,1.41
2023-01-29T15:33:38.828Z,1.47
2023-01-29T15:36:41.715Z,1.50
2023-01-29T15:39:45.634Z,1.59
2023-01-29T15:42:48.953Z,1.56
2023-01-29T15:45:54.130Z,1.40
2023-01-29T15:49:00.462Z,1.40
2023-01-29T15:52:08.104Z,1.32
2023-01-29T15:55:15.445Z,1.27
2023-01-29T15:58:24.531Z,1.21
2023-01-29T16:01:28.744Z,1.18
2023-01-29T16:04:32.086Z,1.11
2023-01-29T16:07:36.355Z,1.08
2023-01-29T16:10:42.237Z,1.03
2023-01-29T16:13:47.964Z,1.10
2023-01-29T16:16:52.647Z,1.22
2023-01-29T16:20:00.563Z,1.20
2023-01-29T16:23:05.078Z,1.10
2023-01-29T16:26:13.398Z,1.16
2023-01-29T16:29:21.937Z,1.12
2023-01-29T16:32:25.062Z,1.15
2023-01-29T16:35:28.154Z,1.16
2023-01-29T16:38:35.436Z,1.16
2023-01-29T16:41:38.805Z,1.09
2023-01-29T16:44:57.866Z,1.10
2023-01-29T16:48:19.181Z,1.17
2023-01-29T16:51:30.854Z,1.14
2023-01-29T16:54:33.893Z,1.16
2023-01-29T16:57:38.689Z,1.17
2023-01-29T17:00:53.243Z,1.12
2023-01-29T17:04:02.224Z,1.11
2023-01-29T17:07:05.494Z,1.03
2023-01-29T17:10:16.748Z,1.10
2023-01-29T17:13:43.073Z,0.97
2023-01-29T17:16:51.311Z,0.93
2023-01-29T17:19:54.338Z,0.85
2023-01-29T17:22:57.397Z,0.78
2023-01-29T17:26:00.446Z,0.88
2023-01-29T17:29:03.826Z,0.82
2023-01-29T17:32:06.963Z,0.82
2023-01-29T17:35:14.313Z,0.86
2023-01-29T17:38:26.011Z,0.77
2023-01-29T17:41:30.805Z,0.79
2023-01-29T17:44:34.482Z,0.77
2023-01-29T17:47:37.543Z,0.80
2023-01-29T17:50:43.705Z,0.82
2023-01-29T17:53:47.599Z,0.78
2023-01-29T17:56:52.468Z,0.68
2023-01-29T17:59:55.548Z,0.68
2023-01-29T18:03:03.201Z,0.62
2023-01-29T18:06:10.318Z,0.64
2023-01-29T18:09:15.015Z,0.61
2023-01-29T18:12:18.169Z,0.59
2023-01-29T18:15:21.382Z,0.54
2023-01-29T18:18:26.235Z,0.54
2023-01-29T18:21:29.374Z,0.59
2023-01-29T18:24:32.270Z,0.59
2023-01-29T18:27:35.337Z,0.59
2023-01-29T18:30:38.343Z,0.56
2023-01-29T18:33:41.571Z,0.56
2023-01-29T18:36:47.765Z,0.56
2023-01-29T18:39:50.847Z,0.52
2023-01-29T18:42:53.974Z,0.51
2023-01-29T18:46:00.109Z,0.60
2023-01-29T18:49:03.508Z,0.54
2023-01-29T18:52:07.781Z,0.56
2023-01-29T18:55:10.615Z,0.52
2023-01-29T18:58:33.917Z,0.60
2023-01-29T19:01:37.153Z,0.52
2023-01-29T19:04:40.915Z,0.55
2023-01-29T19:07:44.235Z,0.60
2023-01-29T19:10:47.529Z,0.48
2023-01-29T19:13:55.093Z,0.47
2023-01-29T19:16:58.371Z,0.40
2023-01-29T19:20:04.945Z,0.45
2023-01-29T19:23:09.058Z,0.51
2023-01-29T19:26:13.715Z,0.38
2023-01-29T19:29:18.187Z,0.36
2023-01-29T19:32:21.332Z,0.40
2023-01-29T19:35:24.585Z,0.33
2023-01-29T19:38:28.799Z,0.33
2023-01-29T19:41:32.886Z,0.32
2023-01-29T19:44:39.120Z,0.42
2023-01-29T19:47:43.839Z,0.45
2023-01-29T19:50:52.675Z,0.50
2023-01-29T19:53:55.413Z,0.45
2023-01-29T19:56:58.284Z,0.37
2023-01-29T20:00:01.827Z,0.32
2023-01-29T20:03:07.247Z,0.34
2023-01-29T20:06:11.479Z,0.42
2023-01-29T20:09:14.867Z,0.36
2023-01-29T20:12:18.189Z,0.29
2023-01-29T20:15:22.464Z,0.34
2023-01-29T20:18:25.868Z,0.32
2023-01-29T20:21:29.111Z,0.28
2023-01-29T20:24:34.731Z,0.29
2023-01-29T20:27:37.999Z,0.21
2023-01-29T20:30:45.618Z,0.19
2023-01-29T20:33:48.773Z,0.22
2023-01-29T20:36:51.780Z,0.22
2023-01-29T20:40:00.575Z,0.15
2023-01-29T20:43:05.504Z,0.16
2023-01-29T20:46:09.733Z,0.13
2023-01-29T20:49:12.865Z,0.13
2023-01-29T20:52:15.881Z,0.12
2023-01-29T20:55:19.042Z,0.11
2023-01-29T20:58:22.171Z,0.02
2023-01-29T21:01:25.274Z,-0.03
2023-01-29T21:04:28.426Z,-0.02
2023-01-29T21:07:31.596Z,-0.06
2023-01-29T21:10:34.728Z,-0.05
2023-01-29T21:13:38.082Z,-0.01
2023-01-29T21:16:41.562Z,0.05
2023-01-29T21:19:44.858Z,-0.06
2023-01-29T21:22:49.352Z,-0.07
2023-01-29T21:25:52.568Z,-0.01
2023-01-29T21:28:56.509Z,-0.01
2023-01-29T21:31:59.703Z,-0.09
2023-01-29T21:35:04.428Z,-0.09
2023-01-29T21:38:07.583Z,-0.14
2023-01-29T21:41:10.699Z,-0.30
2023-01-29T21:44:13.906Z,-0.47
2023-01-29T21:47:17.125Z,-0.46
2023-01-29T21:50:20.888Z,-0.58
2023-01-29T21:53:24.456Z,-0.72
2023-01-29T21:56:27.977Z,-0.81
2023-01-29T21:59:32.767Z,-0.85
2023-01-29T22:02:36.028Z,-1.05
2023-01-29T22:05:39.768Z,-1.01
2023-01-29T22:08:43.080Z,-1.14
2023-01-29T22:11:46.503Z,-1.15
2023-01-29T22:14:50.979Z,-1.17
2023-01-29T22:17:54.055Z,-1.25
2023-01-29T22:20:57.744Z,-1.27
2023-01-29T22:24:00.819Z,-1.31
2023-01-29T22:27:04.058Z,-1.39
2023-01-29T22:30:07.831Z,-1.43
2023-01-29T22:33:11.221Z,-1.49
2023-01-29T22:36:14.148Z,-1.50
2023-01-29T22:39:17.284Z,-1.55
2023-01-29T22:42:20.945Z,-1.60
2023-01-29T22:45:23.937Z,-1.66
2023-01-29T22:48:28.686Z,-1.75
2023-01-29T22:51:32.754Z,-1.74
2023-01-29T22:54:40.969Z,-1.91
2023-01-29T22:57:44.029Z,-2.00
2023-01-29T23:00:51.423Z,-2.11
2023-01-29T23:03:54.758Z,-2.20
2023-01-29T23:06:58.606Z,-2.35
2023-01-29T23:10:01.712Z,-2.37
2023-01-29T23:13:04.821Z,-2.51
2023-01-29T23:16:08.579Z,-2.56
2023-01-29T23:19:12.481Z,-2.65
2023-01-29T23:22:18.322Z,-2.68
2023-01-29T23:25:21.466Z,-2.80
2023-01-29T23:28:24.742Z,-2.66
2023-01-29T23:31:27.802Z,-2.54
2023-01-29T23:34:31.040Z,-2.37
2023-01-29T23:37:34.698Z,-2.21
2023-01-29T23:40:37.654Z,-2.00
2023-01-29T23:43:40.822Z,-1.85
2023-01-29T23:46:44.504Z,-1.76
2023-01-29T23:49:47.605Z,-1.57
2023-01-29T23:52:50.847Z,-1.58
2023-01-29T23:56:03.099Z,-1.56
2023-01-29T23:59:07.316Z,-1.47
